Terminal Aerodrome Forecast
Issued by NWS

Home | Current Version | Previous Version | Text Only | Print | Product List | Glossary On
Versions: 1 2 3 4 5 6 7 8 9 10 11 12 13 14
000
FTUS42 KTBW 112340
TAFPIE
TAF
KPIE 112340Z 1200/1224 VRB03KT P6SM SKC
     FM121400 26010KT P6SM SCT030 BKN250
     FM121600 28016G24KT P6SM SCT030 SCT250
     FM122300 30015KT P6SM FEW250=

USA.gov is the U.S. government's official web portal to all federal, state and local government web resources and services.